createdAt,value
2018-02-02T00:00:36.229Z,3.89
2018-02-02T00:03:03.919Z,3.81
2018-02-02T00:05:31.595Z,3.97
2018-02-02T00:07:59.802Z,3.90
2018-02-02T00:10:27.457Z,4.09
2018-02-02T00:12:55.130Z,3.88
2018-02-02T00:15:22.819Z,4.00
2018-02-02T00:17:50.502Z,4.07
2018-02-02T00:20:18.219Z,4.07
2018-02-02T00:22:45.890Z,4.29
2018-02-02T00:25:13.868Z,4.27
2018-02-02T00:27:41.528Z,4.41
2018-02-02T00:30:09.200Z,4.21
2018-02-02T00:32:36.885Z,4.24
2018-02-02T00:35:04.552Z,4.38
2018-02-02T00:37:32.236Z,4.55
2018-02-02T00:39:59.902Z,4.00
2018-02-02T00:42:27.817Z,3.84
2018-02-02T00:44:55.518Z,3.77
2018-02-02T00:47:23.197Z,4.11
2018-02-02T00:49:50.875Z,4.23
2018-02-02T00:52:18.557Z,4.46
2018-02-02T00:54:46.339Z,4.54
2018-02-02T00:57:14.009Z,4.57
2018-02-02T00:59:41.734Z,4.31
2018-02-02T01:02:09.395Z,4.13
2018-02-02T01:04:37.286Z,3.90
2018-02-02T01:07:04.984Z,4.07
2018-02-02T01:09:32.655Z,4.24
2018-02-02T01:12:00.343Z,4.43
2018-02-02T01:14:28.014Z,4.30
2018-02-02T01:16:55.996Z,4.43
2018-02-02T01:19:23.677Z,4.43
2018-02-02T01:21:51.396Z,4.22
2018-02-02T01:24:19.061Z,4.37
2018-02-02T01:26:46.724Z,4.29
2018-02-02T01:29:14.415Z,4.45
2018-02-02T01:31:42.341Z,4.48
2018-02-02T01:34:10.383Z,4.49
2018-02-02T01:36:38.049Z,4.63
2018-02-02T01:39:06.767Z,4.42
2018-02-02T01:41:34.456Z,4.38
2018-02-02T01:44:02.253Z,4.23
2018-02-02T01:46:29.935Z,4.15
2018-02-02T01:48:57.615Z,4.21
2018-02-02T01:51:25.515Z,4.14
2018-02-02T01:53:53.174Z,3.99
2018-02-02T01:56:20.851Z,4.03
2018-02-02T01:58:48.541Z,3.92
2018-02-02T02:01:16.212Z,3.63
2018-02-02T02:03:43.912Z,3.59
2018-02-02T02:06:11.590Z,4.01
2018-02-02T02:08:39.248Z,4.22
2018-02-02T02:11:06.934Z,4.09
2018-02-02T02:13:34.588Z,4.14
2018-02-02T02:16:02.308Z,4.19
2018-02-02T02:18:29.983Z,4.04
2018-02-02T02:20:57.650Z,4.13
2018-02-02T02:23:25.325Z,3.83
2018-02-02T02:25:52.988Z,3.60
2018-02-02T02:28:20.686Z,3.76
2018-02-02T02:30:48.351Z,3.62
2018-02-02T02:33:16.299Z,3.83
2018-02-02T02:35:43.968Z,3.88
2018-02-02T02:38:11.643Z,3.60
2018-02-02T02:40:39.321Z,3.53
2018-02-02T02:43:06.975Z,3.42
2018-02-02T02:45:34.667Z,3.41
2018-02-02T02:48:02.332Z,3.30
2018-02-02T02:50:30.335Z,3.29
2018-02-02T02:52:57.999Z,3.29
2018-02-02T02:55:25.660Z,3.13
2018-02-02T02:57:53.353Z,3.25
2018-02-02T03:00:21.095Z,3.34
2018-02-02T03:02:49.073Z,3.34
2018-02-02T03:05:16.740Z,3.50
2018-02-02T03:07:44.405Z,3.27
2018-02-02T03:10:12.092Z,3.24
2018-02-02T03:12:39.756Z,3.18
2018-02-02T03:15:07.432Z,3.08
2018-02-02T03:17:35.104Z,3.26
2018-02-02T03:20:03.001Z,3.23
2018-02-02T03:22:30.666Z,2.90
2018-02-02T03:24:58.375Z,2.75
2018-02-02T03:27:26.055Z,2.80
2018-02-02T03:29:53.711Z,2.99
2018-02-02T03:32:21.407Z,2.90
2018-02-02T03:34:49.071Z,2.86
2018-02-02T03:37:16.949Z,2.70
2018-02-02T03:39:44.610Z,2.86
2018-02-02T03:42:12.262Z,2.71
2018-02-02T03:44:39.939Z,2.85
2018-02-02T03:47:07.627Z,2.83
2018-02-02T03:49:35.318Z,2.96
2018-02-02T03:52:02.982Z,2.96
2018-02-02T03:54:30.690Z,3.05
2018-02-02T03:56:58.363Z,3.14
2018-02-02T03:59:26.022Z,3.38
2018-02-02T04:01:53.703Z,3.00
2018-02-02T04:04:21.376Z,2.86
2018-02-02T04:06:49.053Z,3.03
2018-02-02T04:09:16.844Z,3.05
2018-02-02T04:11:44.560Z,3.15
2018-02-02T04:14:12.221Z,3.37
2018-02-02T04:16:39.887Z,3.52
2018-02-02T04:19:07.580Z,3.56
2018-02-02T04:21:35.235Z,3.61
2018-02-02T04:24:02.923Z,3.61
2018-02-02T04:26:30.616Z,3.64
2018-02-02T04:28:58.348Z,3.42
2018-02-02T04:31:26.023Z,3.32
2018-02-02T04:33:53.684Z,3.30
2018-02-02T04:36:22.094Z,3.28
2018-02-02T04:38:49.751Z,3.39
2018-02-02T04:41:17.446Z,3.32
2018-02-02T04:43:45.116Z,3.45
2018-02-02T04:46:12.818Z,3.47
2018-02-02T04:48:40.479Z,3.27
2018-02-02T04:51:08.147Z,3.39
2018-02-02T04:53:35.843Z,2.95
2018-02-02T04:56:03.504Z,3.14
2018-02-02T04:58:31.196Z,3.21
2018-02-02T05:00:58.855Z,2.63
2018-02-02T05:03:26.877Z,2.93
2018-02-02T05:05:54.563Z,3.14
2018-02-02T05:08:22.239Z,2.92
2018-02-02T05:10:49.922Z,2.86
2018-02-02T05:13:17.591Z,2.87
2018-02-02T05:15:45.271Z,2.74
2018-02-02T05:18:13.050Z,2.44
2018-02-02T05:20:40.906Z,2.63
2018-02-02T05:23:08.567Z,2.70
2018-02-02T05:25:36.220Z,2.85
2018-02-02T05:28:03.900Z,2.81
2018-02-02T05:30:31.574Z,2.83
2018-02-02T05:32:59.255Z,3.06
2018-02-02T05:35:26.931Z,2.89
2018-02-02T05:37:54.738Z,3.12
2018-02-02T05:40:22.416Z,3.15
2018-02-02T05:42:50.060Z,3.18
2018-02-02T05:45:17.744Z,3.21
2018-02-02T05:47:45.409Z,3.23
2018-02-02T05:50:13.111Z,3.19
2018-02-02T05:52:40.776Z,3.23
2018-02-02T05:55:08.467Z,3.04
2018-02-02T05:57:36.137Z,3.07
2018-02-02T06:00:03.843Z,3.11
2018-02-02T06:02:31.527Z,3.13
2018-02-02T06:04:59.201Z,3.11
2018-02-02T06:07:26.900Z,3.01
2018-02-02T06:09:54.560Z,2.98
2018-02-02T06:12:22.431Z,2.93
2018-02-02T06:14:50.126Z,3.08
2018-02-02T06:17:17.796Z,3.01
2018-02-02T06:19:45.463Z,3.08
2018-02-02T06:22:13.134Z,3.12
2018-02-02T06:24:40.869Z,3.02
2018-02-02T06:27:08.536Z,2.77
2018-02-02T06:29:36.367Z,2.85
2018-02-02T06:32:04.035Z,2.56
2018-02-02T06:34:31.707Z,2.67
2018-02-02T06:37:06.028Z,2.72
2018-02-02T06:39:33.838Z,2.77
2018-02-02T06:42:01.772Z,2.58
2018-02-02T06:44:29.470Z,2.63
2018-02-02T06:46:57.264Z,2.70
2018-02-02T06:49:24.913Z,2.64
2018-02-02T06:51:52.582Z,2.76
2018-02-02T06:54:20.271Z,2.76
2018-02-02T06:56:47.962Z,2.85
2018-02-02T06:59:15.654Z,2.84
2018-02-02T07:01:43.310Z,2.86
2018-02-02T07:04:11.212Z,3.01
2018-02-02T07:06:38.887Z,2.98
2018-02-02T07:09:06.558Z,2.97
2018-02-02T07:11:34.244Z,3.02
2018-02-02T07:14:01.896Z,3.04
2018-02-02T07:16:29.600Z,3.12
2018-02-02T07:18:57.255Z,3.18
2018-02-02T07:21:24.951Z,3.28
2018-02-02T07:23:52.613Z,3.29
2018-02-02T07:26:20.288Z,3.39
2018-02-02T07:28:47.971Z,3.35
2018-02-02T07:31:15.678Z,3.38
2018-02-02T07:33:43.371Z,3.41
2018-02-02T07:36:11.030Z,3.39
2018-02-02T07:38:38.819Z,3.53
2018-02-02T07:41:06.482Z,3.65
2018-02-02T07:43:34.152Z,3.63
2018-02-02T07:46:01.849Z,3.79
2018-02-02T07:48:29.575Z,3.79
2018-02-02T07:50:57.262Z,3.68
2018-02-02T07:53:24.924Z,3.66
2018-02-02T07:55:53.036Z,3.83
2018-02-02T07:58:20.692Z,3.90
2018-02-02T08:00:54.195Z,3.83
2018-02-02T08:03:21.856Z,3.67
2018-02-02T08:05:49.513Z,3.75
2018-02-02T08:08:17.184Z,3.74
2018-02-02T08:10:44.963Z,3.77
2018-02-02T08:13:12.654Z,3.83
2018-02-02T08:15:40.327Z,3.79
2018-02-02T08:18:08.036Z,3.80
2018-02-02T08:20:35.692Z,3.74
2018-02-02T08:23:03.360Z,3.68
2018-02-02T08:25:31.052Z,3.81
2018-02-02T08:27:58.718Z,3.72
2018-02-02T08:30:26.432Z,3.83
2018-02-02T08:32:54.087Z,3.85
2018-02-02T08:35:21.878Z,3.92
2018-02-02T08:37:49.546Z,3.89
2018-02-02T08:40:17.217Z,3.75
2018-02-02T08:42:44.911Z,3.56
2018-02-02T08:45:12.572Z,3.61
2018-02-02T08:47:40.243Z,3.71
2018-02-02T08:50:08.049Z,3.88
2018-02-02T08:52:35.744Z,3.80
2018-02-02T08:55:03.400Z,3.82
2018-02-02T08:57:31.556Z,3.95
2018-02-02T08:59:59.628Z,3.98
2018-02-02T09:02:27.287Z,4.13
2018-02-02T09:04:54.959Z,4.28
2018-02-02T09:07:22.644Z,4.32
2018-02-02T09:09:50.371Z,4.33
2018-02-02T09:12:18.049Z,4.50
2018-02-02T09:14:45.720Z,4.39
2018-02-02T09:17:13.557Z,4.43
2018-02-02T09:19:41.645Z,4.55
2018-02-02T09:22:08.885Z,4.36
2018-02-02T09:24:36.556Z,4.45
2018-02-02T09:27:03.693Z,4.32
2018-02-02T09:29:31.355Z,4.46
2018-02-02T09:31:59.020Z,4.49
2018-02-02T09:34:26.710Z,4.66
2018-02-02T09:36:54.380Z,4.79
2018-02-02T09:39:22.080Z,4.81
2018-02-02T09:41:49.760Z,4.60
2018-02-02T09:44:17.639Z,4.62
2018-02-02T09:46:45.311Z,4.67
2018-02-02T09:49:12.963Z,4.69
2018-02-02T09:51:41.378Z,4.70
2018-02-02T09:54:09.179Z,4.69
2018-02-02T09:56:36.871Z,4.85
2018-02-02T09:59:04.857Z,4.72
2018-02-02T10:01:32.516Z,5.04
2018-02-02T10:04:00.196Z,5.17
2018-02-02T10:06:27.859Z,5.19
2018-02-02T10:08:55.566Z,5.35
2018-02-02T10:11:23.252Z,5.55
2018-02-02T10:13:50.942Z,5.63
2018-02-02T10:16:18.621Z,5.67
2018-02-02T10:18:46.291Z,5.78
2018-02-02T10:21:14.137Z,5.62
2018-02-02T10:23:41.727Z,5.63
2018-02-02T10:26:09.388Z,5.71
2018-02-02T10:28:37.081Z,5.89
2018-02-02T10:31:04.761Z,5.96
2018-02-02T10:33:32.627Z,5.86
2018-02-02T10:36:00.231Z,5.83
2018-02-02T10:38:27.899Z,5.75
2018-02-02T10:40:55.601Z,5.55
2018-02-02T10:43:25.495Z,5.83
2018-02-02T10:45:53.218Z,5.90
2018-02-02T10:48:21.047Z,5.89
2018-02-02T10:50:48.634Z,6.02
2018-02-02T10:53:16.330Z,5.90
2018-02-02T10:55:43.985Z,6.13
2018-02-02T10:58:15.215Z,6.01
2018-02-02T11:00:48.346Z,6.00
2018-02-02T11:03:21.690Z,6.06
2018-02-02T11:05:53.058Z,6.08
2018-02-02T11:08:20.683Z,6.06
2018-02-02T11:10:48.340Z,6.35
2018-02-02T11:13:15.950Z,6.36
2018-02-02T11:15:43.584Z,6.22
2018-02-02T11:18:11.188Z,6.38
2018-02-02T11:20:38.807Z,6.35
2018-02-02T11:23:06.395Z,6.01
2018-02-02T11:25:34.002Z,5.98
2018-02-02T11:28:01.602Z,5.88
2018-02-02T11:30:29.244Z,5.97
2018-02-02T11:32:56.863Z,6.03
2018-02-02T11:35:24.477Z,6.15
2018-02-02T11:37:52.091Z,6.06
2018-02-02T11:40:20.092Z,5.89
2018-02-02T11:42:47.719Z,5.79
2018-02-02T11:45:15.476Z,5.62
2018-02-02T11:47:43.155Z,5.69
2018-02-02T11:50:10.753Z,5.61
2018-02-02T11:52:38.511Z,5.59
2018-02-02T11:55:06.132Z,5.80
2018-02-02T11:57:33.839Z,5.78
2018-02-02T12:00:01.544Z,5.70
2018-02-02T12:02:29.217Z,5.77
2018-02-02T12:04:56.878Z,5.89
2018-02-02T12:07:24.606Z,5.95
2018-02-02T12:09:52.305Z,5.89
2018-02-02T12:12:20.018Z,5.78
2018-02-02T12:14:47.710Z,5.82
2018-02-02T12:17:15.401Z,5.70
2018-02-02T12:19:43.052Z,5.73
2018-02-02T12:22:16.406Z,5.70
2018-02-02T12:24:49.723Z,5.76
2018-02-02T12:30:40.024Z,5.60
2018-02-02T12:33:13.252Z,5.71
2018-02-02T12:38:43.794Z,5.58
2018-02-02T12:41:11.393Z,5.72
2018-02-02T12:43:39.174Z,5.50
2018-02-02T12:46:06.879Z,5.65
2018-02-02T12:48:41.310Z,5.63
2018-02-02T12:51:17.195Z,5.78
2018-02-02T12:53:44.892Z,5.83
2018-02-02T12:56:12.560Z,5.58
2018-02-02T12:58:40.268Z,5.53
2018-02-02T13:01:07.967Z,5.46
2018-02-02T13:03:35.560Z,5.73
2018-02-02T13:06:03.251Z,5.54
2018-02-02T13:08:30.959Z,5.66
2018-02-02T13:10:58.852Z,5.53
2018-02-02T13:13:26.573Z,5.46
2018-02-02T13:15:54.430Z,5.60
2018-02-02T13:18:22.140Z,5.71
2018-02-02T13:20:49.925Z,5.69
2018-02-02T13:23:17.634Z,5.75
2018-02-02T13:25:45.301Z,5.47
2018-02-02T13:28:13.392Z,5.54
2018-02-02T13:30:41.268Z,5.64
2018-02-02T13:33:08.935Z,5.43
2018-02-02T13:35:37.107Z,5.37
2018-02-02T13:38:04.960Z,5.42
2018-02-02T13:40:32.658Z,5.70
2018-02-02T13:43:00.246Z,5.68
2018-02-02T13:45:27.882Z,5.57
2018-02-02T13:47:55.574Z,5.61
2018-02-02T13:50:23.238Z,5.63
2018-02-02T13:52:50.923Z,5.46
2018-02-02T13:55:18.511Z,5.75
2018-02-02T13:57:46.119Z,5.57
2018-02-02T14:00:13.790Z,5.27
2018-02-02T14:02:41.668Z,5.34
2018-02-02T14:05:09.332Z,5.32
2018-02-02T14:07:36.991Z,5.29
2018-02-02T14:10:04.686Z,5.35
2018-02-02T14:12:32.359Z,5.58
2018-02-02T14:15:00.077Z,5.53
2018-02-02T14:17:27.849Z,5.52
2018-02-02T14:19:55.709Z,5.46
2018-02-02T14:22:23.382Z,5.33
2018-02-02T14:24:51.246Z,5.39
2018-02-02T14:27:18.936Z,5.34
2018-02-02T14:29:46.603Z,5.38
2018-02-02T14:32:14.295Z,5.43
2018-02-02T14:34:41.960Z,5.52
2018-02-02T14:37:09.750Z,5.51
2018-02-02T14:39:37.418Z,5.49
2018-02-02T14:42:05.100Z,5.63
2018-02-02T14:44:32.778Z,5.48
2018-02-02T14:47:00.457Z,5.32
2018-02-02T14:49:28.156Z,5.26
2018-02-02T14:51:56.039Z,5.46
2018-02-02T14:54:23.923Z,5.39
2018-02-02T14:56:51.597Z,5.47
2018-02-02T14:59:19.270Z,5.33
2018-02-02T15:01:46.950Z,5.51
2018-02-02T15:04:14.610Z,5.45
2018-02-02T15:06:42.312Z,5.70
2018-02-02T15:09:09.964Z,5.50
2018-02-02T15:11:38.219Z,5.57
2018-02-02T15:14:05.985Z,5.41
2018-02-02T15:16:33.666Z,5.47
2018-02-02T15:19:01.364Z,5.72
2018-02-02T15:21:29.034Z,5.61
2018-02-02T15:23:56.755Z,5.61
2018-02-02T15:26:24.424Z,5.54
2018-02-02T15:28:52.431Z,5.54
2018-02-02T15:31:20.278Z,5.42
2018-02-02T15:33:47.972Z,5.56
2018-02-02T15:36:15.703Z,5.49
2018-02-02T15:38:43.380Z,5.41
2018-02-02T15:41:11.069Z,5.39
2018-02-02T15:43:38.732Z,5.36
2018-02-02T15:46:06.751Z,5.50
2018-02-02T15:48:34.413Z,5.36
2018-02-02T15:51:02.093Z,5.38
2018-02-02T15:53:29.791Z,5.50
2018-02-02T15:55:57.459Z,5.62
2018-02-02T15:58:25.147Z,5.71
2018-02-02T16:00:52.844Z,5.63
2018-02-02T16:03:20.465Z,5.65
2018-02-02T16:05:48.131Z,5.50
2018-02-02T16:08:16.108Z,5.53
2018-02-02T16:10:43.787Z,5.23
2018-02-02T16:13:11.476Z,5.23
2018-02-02T16:15:39.176Z,5.27
2018-02-02T16:18:06.848Z,5.27
2018-02-02T16:20:34.539Z,5.39
2018-02-02T16:23:02.206Z,5.52
2018-02-02T16:25:29.840Z,5.71
2018-02-02T16:27:57.514Z,5.77
2018-02-02T16:30:25.187Z,5.85
2018-02-02T16:32:52.871Z,5.79
2018-02-02T16:35:20.463Z,5.94
2018-02-02T16:37:48.390Z,5.96
2018-02-02T16:40:16.045Z,5.91
2018-02-02T16:42:43.633Z,5.90
2018-02-02T16:45:11.267Z,6.00
2018-02-02T16:47:38.934Z,5.97
2018-02-02T16:50:06.725Z,5.98
2018-02-02T16:52:34.420Z,5.84
2018-02-02T16:55:02.089Z,5.74
2018-02-02T16:57:29.787Z,5.84
2018-02-02T16:59:57.454Z,5.88
2018-02-02T17:02:25.139Z,5.83
2018-02-02T17:04:52.729Z,5.93
2018-02-02T17:07:20.531Z,5.92
2018-02-02T17:09:48.194Z,5.91
2018-02-02T17:12:15.852Z,5.74
2018-02-02T17:14:43.546Z,5.88
2018-02-02T17:17:11.222Z,5.93
2018-02-02T17:19:38.831Z,5.55
2018-02-02T17:22:06.428Z,5.44
2018-02-02T17:24:34.175Z,5.53
2018-02-02T17:27:01.784Z,5.53
2018-02-02T17:29:29.382Z,5.42
2018-02-02T17:31:57.065Z,5.24
2018-02-02T17:34:24.688Z,5.22
2018-02-02T17:36:52.391Z,5.18
2018-02-02T17:39:19.975Z,5.39
2018-02-02T17:41:47.664Z,5.51
2018-02-02T17:44:15.336Z,5.42
2018-02-02T17:46:43.002Z,5.16
2018-02-02T17:49:10.607Z,5.19
2018-02-02T17:51:38.282Z,5.28
2018-02-02T17:54:05.979Z,5.30
2018-02-02T17:56:33.648Z,5.21
2018-02-02T17:59:01.307Z,5.06
2018-02-02T18:01:43.868Z,5.04
2018-02-02T18:04:11.559Z,5.08
2018-02-02T18:06:39.238Z,5.28
2018-02-02T18:09:06.940Z,5.35
2018-02-02T18:11:34.652Z,5.31
2018-02-02T18:14:02.331Z,5.39
2018-02-02T18:16:29.936Z,5.20
2018-02-02T18:18:57.601Z,5.13
2018-02-02T18:21:25.286Z,5.30
2018-02-02T18:23:52.948Z,5.11
2018-02-02T18:26:20.648Z,5.36
2018-02-02T18:28:48.359Z,5.40
2018-02-02T18:31:16.041Z,5.41
2018-02-02T18:33:43.726Z,5.29
2018-02-02T18:36:11.389Z,5.38
2018-02-02T18:38:39.069Z,5.35
2018-02-02T18:41:06.726Z,5.35
2018-02-02T18:43:34.396Z,5.20
2018-02-02T18:46:02.079Z,5.47
2018-02-02T18:48:29.674Z,5.49
2018-02-02T18:50:57.387Z,5.42
2018-02-02T18:53:25.059Z,5.59
2018-02-02T18:55:52.733Z,5.63
2018-02-02T18:58:20.429Z,5.57
2018-02-02T19:00:48.082Z,5.34
2018-02-02T19:03:16.011Z,5.45
2018-02-02T19:05:43.677Z,5.29
2018-02-02T19:08:11.347Z,5.20
2018-02-02T19:10:38.958Z,5.18
2018-02-02T19:13:06.639Z,5.42
2018-02-02T19:15:34.534Z,5.24
2018-02-02T19:18:02.193Z,5.08
2018-02-02T19:20:29.881Z,5.27
2018-02-02T19:22:57.565Z,5.46
2018-02-02T19:25:25.243Z,5.55
2018-02-02T19:27:53.017Z,5.50
2018-02-02T19:30:20.688Z,5.45
2018-02-02T19:32:48.576Z,5.40
2018-02-02T19:35:16.308Z,5.41
2018-02-02T19:37:43.978Z,5.47
2018-02-02T19:40:11.672Z,5.46
2018-02-02T19:42:39.345Z,5.52
2018-02-02T19:45:07.041Z,5.64
2018-02-02T19:47:34.734Z,5.53
2018-02-02T19:50:02.422Z,5.47
2018-02-02T19:52:30.097Z,5.52
2018-02-02T19:54:57.939Z,5.64
2018-02-02T19:57:25.617Z,5.61
2018-02-02T19:59:53.316Z,5.40
2018-02-02T20:02:21.050Z,5.35
2018-02-02T20:04:48.719Z,5.32
2018-02-02T20:07:16.423Z,5.19
2018-02-02T20:09:44.091Z,5.13
2018-02-02T20:12:12.192Z,5.19
2018-02-02T20:14:39.915Z,5.12
2018-02-02T20:17:07.581Z,5.25
2018-02-02T20:19:35.271Z,5.37
2018-02-02T20:22:02.953Z,5.16
2018-02-02T20:24:30.631Z,5.18
2018-02-02T20:26:58.315Z,5.07
2018-02-02T20:29:26.027Z,5.20
2018-02-02T20:31:53.700Z,5.28
2018-02-02T20:34:21.394Z,5.00
2018-02-02T20:36:49.070Z,5.04
2018-02-02T20:39:16.819Z,5.06
2018-02-02T20:41:44.474Z,5.26
2018-02-02T20:44:12.168Z,5.23
2018-02-02T20:46:40.085Z,5.07
2018-02-02T20:49:07.756Z,5.02
2018-02-02T20:51:35.443Z,5.16
2018-02-02T20:54:03.100Z,5.11
2018-02-02T20:56:30.872Z,4.92
2018-02-02T20:58:58.558Z,4.99
2018-02-02T21:01:26.237Z,4.99
2018-02-02T21:03:53.927Z,4.99
2018-02-02T21:06:21.597Z,5.36
2018-02-02T21:08:49.279Z,5.52
2018-02-02T21:11:16.961Z,5.34
2018-02-02T21:13:44.992Z,5.21
2018-02-02T21:16:12.671Z,5.17
2018-02-02T21:18:40.345Z,5.27
2018-02-02T21:21:08.045Z,5.09
2018-02-02T21:23:35.724Z,5.34
2018-02-02T21:26:03.439Z,4.90
2018-02-02T21:28:31.111Z,5.20
2018-02-02T21:30:58.793Z,5.23
2018-02-02T21:33:26.491Z,5.40
2018-02-02T21:35:54.171Z,5.28
2018-02-02T21:38:21.866Z,5.27
2018-02-02T21:40:49.535Z,5.40
2018-02-02T21:43:17.271Z,5.29
2018-02-02T21:45:44.940Z,5.24
2018-02-02T21:48:12.610Z,5.05
2018-02-02T21:50:40.366Z,5.10
2018-02-02T21:53:08.029Z,4.99
2018-02-02T21:55:35.748Z,5.01
2018-02-02T21:58:03.406Z,5.04
2018-02-02T22:00:31.067Z,4.95
2018-02-02T22:02:58.758Z,4.84
2018-02-02T22:05:27.137Z,4.80
2018-02-02T22:07:54.831Z,4.80
2018-02-02T22:10:22.531Z,4.78
2018-02-02T22:12:50.255Z,4.65
2018-02-02T22:15:17.920Z,4.80
2018-02-02T22:17:45.588Z,4.91
2018-02-02T22:20:13.268Z,4.65
2018-02-02T22:22:40.975Z,4.49
2018-02-02T22:25:08.659Z,4.50
2018-02-02T22:27:36.337Z,4.45
2018-02-02T22:30:04.050Z,4.43
2018-02-02T22:32:31.727Z,4.45
2018-02-02T22:34:59.427Z,4.57
2018-02-02T22:37:27.109Z,4.58
2018-02-02T22:39:54.787Z,4.62
2018-02-02T22:42:22.463Z,4.49
2018-02-02T22:44:50.163Z,4.68
2018-02-02T22:47:17.840Z,4.67
2018-02-02T22:49:45.527Z,4.76
2018-02-02T22:52:13.203Z,4.65
2018-02-02T22:54:41.122Z,4.74
2018-02-02T22:57:08.807Z,4.99
2018-02-02T22:59:36.520Z,4.82
2018-02-02T23:02:04.205Z,4.95
2018-02-02T23:04:31.879Z,4.82
2018-02-02T23:06:59.574Z,4.77
2018-02-02T23:09:27.251Z,4.73
2018-02-02T23:11:55.201Z,4.91
2018-02-02T23:14:22.868Z,5.07
2018-02-02T23:16:50.532Z,4.96
2018-02-02T23:19:18.259Z,4.72
2018-02-02T23:21:45.967Z,4.68
2018-02-02T23:24:13.676Z,4.88
2018-02-02T23:26:41.344Z,4.75
2018-02-02T23:29:09.050Z,4.71
2018-02-02T23:31:36.733Z,4.78
2018-02-02T23:34:04.428Z,4.90
2018-02-02T23:36:32.105Z,5.10
2018-02-02T23:38:59.807Z,4.95
2018-02-02T23:41:27.488Z,5.05
2018-02-02T23:43:55.543Z,5.17
2018-02-02T23:46:23.226Z,4.86
2018-02-02T23:48:50.904Z,4.70
2018-02-02T23:51:18.603Z,4.74
2018-02-02T23:53:46.395Z,4.75
2018-02-02T23:56:14.102Z,4.83
2018-02-02T23:58:41.787Z,4.95
